To NAV CANADA Home Page Login to a new session Search on AWWS site Disclaimer Vers la page française équivalente Tips FAQ What's new on the site To the Forecasts and Observations / NOTAM section To "File a Flight Plan" website Publications and other links Update of the User's profile FIC Telephone Numbers My Weather Data Folder Route Weather Data Regional Weather Data Local Weather Data To the Forecasts and Observations / NOTAM section
Request Generated 03/19/2019 at 23:20:37 UTC . Weather information available at that time is displayed.

METAR/TAF

PORT HARDY/BC    

METAR CYZT 192300Z 09007KT 20SM BKN220 18/04 A2994 RMK CI5 SLP142 DENSITY ALT 400FT=
METAR CYZT 192200Z 09009KT 20SM SCT220 18/04 A2996 RMK CI4 SLP147 DENSITY ALT 400FT=
METAR CYZT 192100Z 08010KT 20SM SCT220 17/04 A2998 RMK CI3 SLP155 DENSITY ALT 300FT=

TAF CYZT 191838Z 1919/2007 10010G20KT P6SM SKC
BECMG 2005/2007 11006KT
RMK NXT FCST BY 200100Z=
Your time UTC time
Weather data provided by Environment Canada and NAV CANADA